Seguin, Texas
Current Conditions -  °F | °C
As of 10:51 PM on Sunday 19 Oct 2014 (Local Time) from KBAZ Reporting Station
Clear Clear  
Wind Chill: 70°   Ceiling: Unl
Heat Index: 70°   Visibility: 10mi
Dew Point: 60°   Wind: 5mph
Humidity: 71%   Direction: 100°E
Pressure: 30.03"   Gusts: NA
Location:  29.57°N, 97.96°W
Report Text: KBAZ 200351Z AUTO 10004KT 10SM CLR 21/16 A3003 RMK AO2 SLP160 T02110156
Loading
Personal Weather Stations






























Interactive Weather Map
Tropical Storm Tracking
New forecast layout! Learn more

10-Day Weather Forecast

Advertisements
Track Severe Weather on mobile